NCAR-RAP Real-Time Weather Data

Output produced by METARs form (23 February 2020  02:38 UTC)
found at http://weather.rap.ucar.edu/surface/
 
KBHM 230153Z 00000KT 10SM SCT250 06/M01 A3037 RMK AO2 SLP287 T00611011
KBHM 230053Z 00000KT 10SM FEW150 BKN250 06/M01 A3036 RMK AO2 SLP285 T00611006
KBHM 222353Z 20003KT 10SM FEW150 BKN250 12/M04 A3036 RMK AO2 SLP283 T01171044 10139 20100 55006
KBHM 222253Z 22003KT 10SM CLR 13/M06 A3035 RMK AO2 SLP280 T01281056
KBHM 222153Z 15003KT 10SM FEW250 13/M06 A3036 RMK AO2 SLP283 T01331061
KBHM 222053Z 00000KT 10SM SCT250 14/M06 A3038 RMK AO2 SLP289 T01391061 56034
KBHM 221953Z 31003KT 10SM FEW250 12/M05 A3041 RMK AO2 SLP300 T01221050
KBHM 221853Z 28005KT 10SM FEW250 12/M05 A3044 RMK AO2 SLP309 T01171050
KBHM 221753Z VRB03KT 10SM FEW250 11/M05 A3048 RMK AO2 SLP323 T01061050 10106 21033 58011
KBHM 221653Z VRB05KT 10SM FEW250 09/M05 A3051 RMK AO2 SLP334 T00941050
KBHM 221553Z 18007KT 10SM FEW250 08/M04 A3052 RMK AO2 SLP339 T00831044
KBHM 221453Z 10003KT 10SM FEW250 06/M06 A3051 RMK AO2 SLP336 T00561056 50000
KBHM 221353Z 00000KT 10SM FEW250 01/M03 A3052 RMK AO2 SLP337 T00111028
KBHM 221253Z 00000KT 10SM FEW250 M03/M06 A3051 RMK AO2 SLP337 T10281056
KBHM 221153Z 00000KT 10SM CLR M03/M06 A3051 RMK AO2 SLP337 T10331056 11006 21033 53015
KBHM 221053Z 00000KT 10SM CLR M03/M06 A3049 RMK AO2 SLP328 T10331056
KBHM 220953Z 00000KT 10SM CLR M03/M04 A3047 RMK AO2 SLP320 T10281044
KBHM 220853Z 00000KT 10SM CLR M02/M04 A3047 RMK AO2 SLP320 T10221044 58006
KBHM 220753Z 00000KT 10SM CLR M02/M04 A3049 RMK AO2 SLP326 T10171044
KBHM 220653Z 00000KT 10SM CLR M02/M05 A3048 RMK AO2 SLP326 T10171050
KBHM 220553Z 00000KT 10SM CLR M01/M05 A3049 RMK AO2 SLP327 T10111050 10033 21011 400891017 58011
KBHM 220453Z 00000KT 10SM CLR M01/M04 A3050 RMK AO2 SLP333 T10111039
KBHM 220353Z 00000KT 10SM CLR 00/M04 A3052 RMK AO2 SLP339 T00001044
KBHM 220253Z 00000KT 10SM CLR 01/M04 A3052 RMK AO2 SLP339 T00061039 58000
KBHM 220153Z 00000KT 10SM CLR 03/M04 A3053 RMK AO2 SLP342 T00281044
KBHM 220053Z 36006KT 10SM CLR 02/M05 A3052 RMK AO2 SLP340 T00221050
KBHM 212353Z 35006KT 10SM CLR 03/M05 A3052 RMK AO2 SLP339 T00331050 10089 20033 53008
KBHM 212253Z 35007KT 10SM CLR 07/M06 A3051 RMK AO2 SLP333 T00721056
KBHM 212153Z 36009KT 10SM CLR 08/M06 A3050 RMK AO2 SLP330 T00781056
KBHM 212053Z 34010KT 10SM CLR 08/M06 A3050 RMK AO2 SLP330 T00831056 56022
KBHM 211953Z 01012KT 10SM CLR 08/M06 A3050 RMK AO2 SLP331 T00781056
KBHM 211853Z COR 36012KT 10SM CLR 07/M04 A3053 RMK AO2 SLP340 T00671039 RVRNO $
KBHM 211753Z VRB04KT 10SM CLR 05/M04 A3056 RMK AO2 SLP353 T00501039 10056 21017 58006
KBHM 211653Z 35010G17KT 10SM FEW029 03/M04 A3059 RMK AO2 SLP360 T00331039
KBHM 211553Z 36008KT 340V040 10SM FEW023 02/M04 A3059 RMK AO2 SLP360 T00221039
KBHM 211453Z 02011KT 10SM FEW021 02/M04 A3058 RMK AO2 SLP359 T00171039 51025
KBHM 211353Z 01009KT 10SM CLR 00/M04 A3056 RMK AO2 SLP352 T00001044
KBHM 211253Z 36006KT 10SM CLR M01/M04 A3053 RMK AO2 SLP344 T10111044
KBHM 211153Z 36007KT 10SM CLR M01/M04 A3051 RMK AO2 SLP334 70062 T10111044 10017 21011 53016
KBHM 211053Z 01009KT 10SM FEW250 M01/M04 A3049 RMK AO2 SLP327 T10061039
KBHM 210953Z 36008KT 10SM FEW250 00/M03 A3047 RMK AO2 SLP320 T00001033
KBHM 210853Z 36010KT 10SM FEW250 01/M03 A3046 RMK AO2 SLP317 T00061028 51003
KBHM 210753Z 36010KT 10SM CLR 01/M02 A3046 RMK AO2 SLP316 T00061022
KBHM 210653Z 35009KT 10SM CLR 01/M02 A3045 RMK AO2 SLP315 T00111017
KBHM 210553Z 36009KT 10SM CLR 02/M02 A3045 RMK AO2 SLP313 T00171017 10050 20017 401000017 52002
KBHM 210453Z 36008KT 10SM FEW021 03/M01 A3045 RMK AO2 SLP312 T00281006
KBHM 210450Z 36011KT 10SM SCT021 03/M01 A3045 RMK AO2
KBHM 210353Z 36011KT 10SM BKN021 OVC027 04/01 A3044 RMK AO2 SLP310 T00390006
KBHM 210253Z 36008KT 10SM OVC020 04/01 A3042 RMK AO2 SLP303 T00440011 51025